Time;durP1;ratioP1;P1;durP2;ratioP2;P2;SDS_P1;SDS_P2;PMS_P1;PMS_P2;Temp;Humidity;BMP_temperature;BMP_pressure;BME280_temperature;BME280_humidity;BME280_pressure;Samples;Min_cycle;Max_cycle;Signal;HPM_P1;HPM_P2
2021/07/02 00:02:43;;;;;;;14.98;9.95;;;12.10;99.90;;;;;;4963706;28;20047;-93
2021/07/02 00:05:32;;;;;;;18.42;10.63;;;12.10;99.90;;;;;;4929995;29;20047;-91
2021/07/02 00:08:25;;;;;;;22.38;10.77;;;12.00;99.90;;;;;;4924698;29;20048;-91
2021/07/02 00:11:14;;;;;;;14.55;9.80;;;12.00;99.90;;;;;;4931881;29;20138;-90
2021/07/02 00:14:04;;;;;;;15.27;10.23;;;12.00;99.90;;;;;;4943603;28;20076;-91
2021/07/02 00:16:54;;;;;;;21.20;10.30;;;11.90;99.90;;;;;;4936862;29;20079;-91
2021/07/02 00:19:41;;;;;;;14.93;9.80;;;11.90;99.90;;;;;;4963296;28;20053;-93
2021/07/02 00:22:28;;;;;;;16.00;10.32;;;11.90;99.90;;;;;;4953603;28;20051;-91
2021/07/02 00:25:16;;;;;;;15.18;9.70;;;11.80;99.90;;;;;;4959921;28;20062;-92
2021/07/02 00:28:05;;;;;;;16.35;9.98;;;11.90;99.90;;;;;;4926289;29;20091;-93
2021/07/02 00:30:52;;;;;;;16.30;10.85;;;11.80;99.90;;;;;;4936898;29;20072;-93
2021/07/02 00:33:39;;;;;;;15.95;10.57;;;11.80;99.90;;;;;;4938380;28;20122;-92
2021/07/02 00:36:28;;;;;;;17.95;10.70;;;11.70;99.90;;;;;;4933857;29;20094;-93
2021/07/02 00:39:18;;;;;;;17.25;10.95;;;11.80;99.90;;;;;;4946060;29;20047;-93
2021/07/02 00:42:05;;;;;;;18.45;10.77;;;11.80;99.90;;;;;;4935209;28;20197;-92
2021/07/02 00:44:55;;;;;;;13.80;10.32;;;11.80;99.90;;;;;;4931771;29;20050;-92
2021/07/02 00:47:43;;;;;;;22.27;11.38;;;11.80;99.90;;;;;;4948538;28;20050;-93
2021/07/02 00:50:31;;;;;;;16.98;10.38;;;11.90;99.90;;;;;;4948504;29;20044;-92
2021/07/02 00:53:20;;;;;;;15.75;10.50;;;11.90;99.90;;;;;;4931753;28;20102;-91
2021/07/02 00:56:12;;;;;;;13.52;9.30;;;12.00;99.90;;;;;;4938267;28;20102;-93
2021/07/02 00:58:59;;;;;;;18.67;10.43;;;12.10;99.90;;;;;;4968507;28;20051;-92
2021/07/02 01:01:47;;;;;;;16.23;10.45;;;12.10;99.90;;;;;;4952344;28;20078;-94
2021/07/02 01:04:35;;;;;;;17.80;10.82;;;12.10;99.90;;;;;;4935953;28;20580;-92
2021/07/02 01:07:22;;;;;;;14.75;10.52;;;12.00;99.90;;;;;;4937608;29;20040;-91
2021/07/02 01:10:11;;;;;;;14.88;9.77;;;12.10;99.90;;;;;;4936737;29;20044;-92
2021/07/02 01:12:58;;;;;;;15.48;9.88;;;12.00;99.90;;;;;;4937208;29;20186;-92
2021/07/02 01:15:55;;;;;;;18.23;10.93;;;11.90;99.90;;;;;;4935654;29;20187;-91
2021/07/02 01:18:44;;;;;;;15.65;9.43;;;11.90;99.90;;;;;;4938013;29;20127;-92
2021/07/02 01:21:32;;;;;;;18.85;9.77;;;11.80;99.90;;;;;;4961808;28;21189;-91
2021/07/02 01:24:21;;;;;;;16.38;10.75;;;11.70;99.90;;;;;;4937406;29;20191;-91
2021/07/02 01:27:11;;;;;;;20.48;10.18;;;11.60;99.90;;;;;;4935418;28;20040;-90
2021/07/02 01:29:58;;;;;;;18.25;12.07;;;11.60;99.90;;;;;;4936708;29;20142;-90
2021/07/02 01:32:45;;;;;;;17.02;11.57;;;11.50;99.90;;;;;;4964559;28;20118;-89
2021/07/02 01:35:33;;;;;;;22.13;11.57;;;11.40;99.90;;;;;;4933974;29;20055;-93
2021/07/02 01:38:20;;;;;;;20.33;12.82;;;11.40;99.90;;;;;;4961838;28;20220;-90
2021/07/02 01:41:08;;;;;;;16.63;11.73;;;11.40;99.90;;;;;;4937758;29;20135;-90
2021/07/02 01:43:55;;;;;;;17.75;11.38;;;11.40;99.90;;;;;;4932796;29;20056;-89
2021/07/02 01:46:42;;;;;;;18.23;10.82;;;11.40;99.90;;;;;;4934998;29;20517;-89
2021/07/02 01:49:32;;;;;;;21.38;13.45;;;11.40;99.90;;;;;;4936884;28;20434;-91
2021/07/02 01:52:22;;;;;;;15.80;10.98;;;11.40;99.90;;;;;;4956611;28;20195;-92
2021/07/02 01:55:11;;;;;;;20.35;11.70;;;11.40;99.90;;;;;;4932359;29;20127;-90
2021/07/02 01:57:59;;;;;;;23.42;12.05;;;11.40;99.90;;;;;;4938304;29;20051;-90
2021/07/02 02:00:47;;;;;;;19.25;11.93;;;11.40;99.90;;;;;;4939212;29;20043;-91
2021/07/02 02:03:37;;;;;;;18.58;11.75;;;11.30;99.90;;;;;;4938044;29;20055;-89
2021/07/02 02:06:24;;;;;;;18.92;12.60;;;11.20;99.90;;;;;;4962492;28;20127;-90
2021/07/02 02:09:12;;;;;;;18.13;11.43;;;11.10;99.90;;;;;;4935607;29;20138;-90
2021/07/02 02:12:00;;;;;;;22.95;12.05;;;11.10;99.90;;;;;;4931345;28;20048;-90
2021/07/02 02:14:47;;;;;;;21.08;12.98;;;11.00;99.90;;;;;;4934671;28;20047;-90
2021/07/02 02:17:35;;;;;;;21.40;12.50;;;10.90;99.90;;;;;;4927045;29;20546;-90
2021/07/02 02:20:22;;;;;;;19.60;12.10;;;10.90;99.90;;;;;;4929446;29;20196;-89
2021/07/02 02:23:10;;;;;;;24.33;12.93;;;10.80;99.90;;;;;;4936296;28;20095;-90
2021/07/02 02:26:00;;;;;;;25.02;13.30;;;10.70;99.90;;;;;;4950650;28;20483;-89
2021/07/02 02:28:48;;;;;;;22.85;12.63;;;10.60;99.90;;;;;;4934810;29;20115;-92
2021/07/02 02:31:35;;;;;;;20.63;12.48;;;10.60;99.90;;;;;;4935032;29;20092;-89
2021/07/02 02:34:22;;;;;;;23.20;13.30;;;10.50;99.90;;;;;;4948620;28;20095;-90
2021/07/02 02:37:09;;;;;;;24.17;14.18;;;10.40;99.90;;;;;;4930509;29;20059;-92
2021/07/02 02:39:57;;;;;;;27.67;14.50;;;10.50;99.90;;;;;;4931786;29;20047;-91
2021/07/02 02:42:44;;;;;;;25.88;15.20;;;10.50;99.90;;;;;;4945319;29;20095;-90
2021/07/02 02:45:32;;;;;;;29.15;14.75;;;10.60;99.90;;;;;;4948428;29;20107;-92
2021/07/02 02:48:20;;;;;;;26.80;14.20;;;10.60;99.90;;;;;;4929973;29;20044;-91
2021/07/02 02:51:07;;;;;;;29.45;15.52;;;10.60;99.90;;;;;;4934942;29;20051;-91
2021/07/02 02:53:55;;;;;;;27.83;13.73;;;10.70;99.90;;;;;;4927309;29;20139;-92
2021/07/02 02:59:48;;;;;;;21.63;12.68;;;10.70;99.90;;;;;;4948445;29;20047;-90
2021/07/02 03:02:35;;;;;;;22.55;13.77;;;10.70;99.90;;;;;;4929446;29;20047;-91
2021/07/02 03:05:23;;;;;;;24.73;13.15;;;10.80;99.90;;;;;;4934722;29;20175;-90
2021/07/02 03:08:11;;;;;;;25.27;13.73;;;10.80;99.90;;;;;;4931968;29;20180;-90
2021/07/02 03:10:58;;;;;;;19.10;12.30;;;10.70;99.90;;;;;;4926364;29;20111;-91
2021/07/02 03:13:46;;;;;;;19.80;12.80;;;10.80;99.90;;;;;;4934652;28;20059;-91
2021/07/02 03:16:35;;;;;;;21.25;12.75;;;10.70;99.90;;;;;;4963540;28;20091;-91
2021/07/02 03:19:23;;;;;;;25.05;12.73;;;10.70;99.90;;;;;;4959692;28;20399;-91
2021/07/02 03:22:10;;;;;;;18.60;11.52;;;10.80;99.90;;;;;;4934490;29;20043;-90
2021/07/02 03:24:58;;;;;;;23.95;12.68;;;10.80;99.90;;;;;;4947597;28;20047;-90
2021/07/02 03:27:45;;;;;;;18.25;12.05;;;10.80;99.90;;;;;;4935523;28;20048;-90
2021/07/02 03:30:33;;;;;;;18.10;11.98;;;10.80;99.90;;;;;;4935536;29;20133;-89
2021/07/02 03:33:20;;;;;;;17.15;11.70;;;10.80;99.90;;;;;;4939801;29;20059;-91
2021/07/02 03:36:11;;;;;;;20.80;13.05;;;10.80;99.90;;;;;;4929530;29;20071;-92
2021/07/02 03:38:58;;;;;;;20.27;13.13;;;10.80;99.90;;;;;;4941261;29;20059;-90
2021/07/02 03:41:46;;;;;;;26.35;13.10;;;10.80;99.90;;;;;;4938114;28;20058;-91
2021/07/02 03:44:34;;;;;;;21.98;12.02;;;10.80;99.90;;;;;;4960071;28;20142;-91
2021/07/02 03:47:21;;;;;;;22.83;13.20;;;10.90;99.90;;;;;;4936825;28;20126;-93
2021/07/02 03:50:09;;;;;;;17.65;11.77;;;10.80;99.90;;;;;;4932939;29;20043;-91
2021/07/02 03:52:56;;;;;;;20.92;12.50;;;10.80;99.90;;;;;;4947294;29;20052;-93
2021/07/02 03:55:47;;;;;;;20.58;12.27;;;10.80;99.90;;;;;;4936412;28;20043;-90
2021/07/02 03:58:34;;;;;;;21.35;12.60;;;10.80;99.90;;;;;;4959434;28;20669;-91
2021/07/02 04:01:23;;;;;;;18.70;11.88;;;10.90;99.90;;;;;;4934783;29;20110;-92
2021/07/02 04:04:32;;;;;;;20.35;12.88;;;10.90;99.90;;;;;;4946975;28;20123;-92
2021/07/02 04:11:52;;;;;;;20.30;12.45;;;11.10;99.90;;;;;;4949394;28;20031;-92
2021/07/02 04:14:57;;;;;;;18.60;11.85;;;11.20;99.90;;;;;;4957027;28;20531;-89
2021/07/02 04:17:44;;;;;;;17.38;11.13;;;11.10;99.90;;;;;;4935563;28;20043;-93
2021/07/02 04:20:33;;;;;;;21.73;12.13;;;11.20;99.90;;;;;;4941751;29;20059;-91
2021/07/02 04:23:23;;;;;;;20.20;11.65;;;11.20;99.90;;;;;;4935805;29;20050;-92
2021/07/02 04:26:11;;;;;;;19.88;11.73;;;11.20;99.90;;;;;;4943923;28;20126;-90
2021/07/02 04:28:59;;;;;;;23.50;11.45;;;11.30;99.90;;;;;;4935443;28;20051;-91
2021/07/02 04:31:49;;;;;;;18.85;11.43;;;11.30;99.90;;;;;;4956489;28;20048;-91
2021/07/02 04:34:39;;;;;;;17.33;10.70;;;11.40;99.90;;;;;;4943959;28;20048;-92
2021/07/02 04:37:26;;;;;;;18.73;11.40;;;11.50;99.90;;;;;;4923194;29;20119;-90
2021/07/02 04:40:14;;;;;;;17.42;11.13;;;11.50;99.90;;;;;;4937208;29;20070;-92
2021/07/02 04:43:11;;;;;;;18.33;11.48;;;11.60;99.90;;;;;;4934552;29;20063;-91
2021/07/02 04:45:59;;;;;;;17.98;10.82;;;11.60;99.90;;;;;;4938820;29;20468;-90
2021/07/02 04:49:01;;;;;;;16.95;11.98;;;11.60;99.90;;;;;;4936401;29;20192;-92
2021/07/02 04:51:51;;;;;;;19.27;11.55;;;11.60;99.90;;;;;;4932432;29;20486;-92
2021/07/02 04:54:50;;;;;;;20.42;12.43;;;11.60;99.90;;;;;;4936840;29;20394;-91
2021/07/02 04:57:39;;;;;;;18.83;12.15;;;11.50;99.90;;;;;;4951232;28;20373;-92
2021/07/02 05:00:28;;;;;;;20.00;12.10;;;11.50;99.90;;;;;;4965714;28;20461;-92
2021/07/02 05:03:17;;;;;;;18.92;11.90;;;11.60;99.90;;;;;;4946698;28;20062;-89
2021/07/02 05:06:09;;;;;;;17.48;11.00;;;11.60;99.90;;;;;;4945463;29;20054;-91
2021/07/02 05:09:12;;;;;;;17.45;11.52;;;11.70;99.90;;;;;;4964469;28;20059;-90
2021/07/02 05:12:36;;;;;;;17.08;11.15;;;11.80;99.90;;;;;;4920906;29;20447;-90
2021/07/02 05:15:27;;;;;;;17.13;10.07;;;11.90;99.90;;;;;;4949742;29;20272;-91
2021/07/02 05:19:14;;;;;;;17.10;10.27;;;12.00;99.90;;;;;;4973652;28;20052;-93
2021/07/02 05:22:35;;;;;;;14.55;10.25;;;12.10;99.90;;;;;;4973224;28;20043;-90
2021/07/02 05:25:31;;;;;;;13.48;10.35;;;12.30;99.90;;;;;;4950857;29;20057;-90
2021/07/02 05:28:19;;;;;;;13.63;9.52;;;12.40;99.90;;;;;;4956409;29;20066;-89
2021/07/02 05:31:09;;;;;;;15.68;10.13;;;12.50;99.90;;;;;;4932416;29;20056;-90
2021/07/02 05:33:58;;;;;;;16.38;9.48;;;12.50;99.90;;;;;;4944551;28;20156;-89
2021/07/02 05:36:46;;;;;;;13.82;9.57;;;12.60;99.90;;;;;;4935893;29;20043;-89
2021/07/02 05:39:33;;;;;;;16.30;10.27;;;12.80;99.90;;;;;;4937810;29;20079;-90
2021/07/02 05:42:24;;;;;;;16.25;8.95;;;12.90;99.90;;;;;;4935490;29;20048;-91
2021/07/02 05:45:24;;;;;;;14.52;9.70;;;13.10;99.90;;;;;;4952359;28;20059;-91
2021/07/02 05:48:16;;;;;;;13.13;9.13;;;13.20;99.90;;;;;;4959483;28;20088;-89
2021/07/02 05:51:09;;;;;;;16.53;8.97;;;13.30;99.90;;;;;;4935213;29;20059;-91
2021/07/02 05:53:56;;;;;;;14.10;8.93;;;13.50;99.90;;;;;;4931695;29;20749;-89
2021/07/02 05:56:50;;;;;;;20.83;9.05;;;13.60;99.90;;;;;;4959214;28;20056;-91
2021/07/02 05:59:37;;;;;;;;;;;13.80;99.90;;;;;;4962383;28;20179;-91
2021/07/02 06:02:25;;;;;;;13.57;8.60;;;14.00;99.90;;;;;;4935079;28;20251;-90
2021/07/02 06:05:12;;;;;;;14.35;8.52;;;14.20;99.90;;;;;;4960083;28;20071;-90
2021/07/02 06:07:59;;;;;;;13.98;8.18;;;14.40;99.90;;;;;;4931608;29;20486;-90
2021/07/02 06:10:47;;;;;;;13.18;9.05;;;14.70;99.90;;;;;;4950212;28;20043;-90
2021/07/02 06:13:39;;;;;;;11.90;7.43;;;14.90;99.90;;;;;;4933810;29;20055;-90
2021/07/02 06:16:32;;;;;;;10.30;8.05;;;15.20;99.90;;;;;;4937056;29;20047;-89
2021/07/02 06:19:19;;;;;;;11.25;7.88;;;15.50;99.90;;;;;;4947391;28;20468;-89
2021/07/02 06:22:07;;;;;;;11.85;7.15;;;15.90;99.90;;;;;;4965083;28;20099;-89
2021/07/02 06:24:54;;;;;;;14.85;8.10;;;16.30;99.90;;;;;;4938824;28;20103;-90
2021/07/02 06:27:41;;;;;;;9.23;7.25;;;16.40;99.90;;;;;;4942230;28;20052;-90
2021/07/02 06:30:38;;;;;;;12.25;7.13;;;17.00;99.90;;;;;;4938227;29;20032;-89
2021/07/02 06:33:38;;;;;;;9.45;6.05;;;17.30;99.90;;;;;;4950560;28;20062;-90
2021/07/02 06:36:28;;;;;;;9.38;6.10;;;17.80;99.90;;;;;;4950540;28;20163;-89
2021/07/02 06:39:19;;;;;;;7.70;6.15;;;18.10;99.90;;;;;;4961020;28;20044;-90
2021/07/02 06:42:11;;;;;;;9.85;6.85;;;17.70;99.90;;;;;;4932613;29;20079;-92
2021/07/02 06:44:59;;;;;;;;;;;17.00;99.90;;;;;;4935747;29;20063;-92
2021/07/02 06:47:49;;;;;;;11.25;6.93;;;16.70;99.90;;;;;;4960962;28;19966;-88
2021/07/02 06:50:43;;;;;;;10.63;7.57;;;16.70;99.90;;;;;;4966679;28;20039;-89
2021/07/02 06:53:33;;;;;;;8.77;7.32;;;16.60;99.90;;;;;;4947478;28;20047;-88
2021/07/02 06:56:20;;;;;;;11.40;7.28;;;16.80;99.90;;;;;;4935694;28;20048;-88
2021/07/02 06:59:11;;;;;;;9.63;6.78;;;17.10;99.90;;;;;;4937463;29;20056;-90
2021/07/02 07:02:10;;;;;;;9.90;6.68;;;17.40;99.90;;;;;;4946602;28;20338;-88
2021/07/02 07:04:57;;;;;;;8.10;6.45;;;18.10;99.90;;;;;;4948218;28;20051;-89
2021/07/02 07:07:45;;;;;;;9.77;7.05;;;18.10;99.90;;;;;;4962915;28;20162;-90
2021/07/02 07:10:37;;;;;;;7.00;6.15;;;18.30;99.90;;;;;;4971311;28;20350;-91
2021/07/02 07:13:24;;;;;;;7.78;6.90;;;18.40;99.90;;;;;;4954223;28;20048;-91
2021/07/02 07:16:12;;;;;;;7.93;6.53;;;19.00;99.90;;;;;;4954787;28;20107;-91
2021/07/02 07:19:01;;;;;;;8.27;6.25;;;19.50;99.90;;;;;;4951627;28;20102;-89
2021/07/02 07:21:49;;;;;;;8.10;6.05;;;19.30;99.90;;;;;;4952992;28;20059;-93
2021/07/02 07:24:36;;;;;;;7.88;6.32;;;19.30;99.90;;;;;;4938161;29;20044;-89
2021/07/02 07:27:24;;;;;;;6.47;5.72;;;19.70;99.90;;;;;;4957176;28;20185;-89
2021/07/02 07:30:12;;;;;;;8.77;5.75;;;20.70;99.90;;;;;;4939736;29;20147;-89
2021/07/02 07:33:01;;;;;;;7.78;5.80;;;21.30;95.00;;;;;;4930766;29;20154;-88
2021/07/02 07:35:49;;;;;;;8.23;5.88;;;21.30;93.80;;;;;;4926991;29;20051;-90
2021/07/02 07:38:36;;;;;;;7.72;5.40;;;20.30;94.50;;;;;;4933497;29;20660;-87
2021/07/02 07:41:26;;;;;;;12.70;5.35;;;19.60;93.60;;;;;;4945575;28;20135;-88
2021/07/02 07:44:19;;;;;;;5.97;5.25;;;19.20;95.10;;;;;;4953346;28;20119;-89
2021/07/02 07:47:07;;;;;;;8.70;5.25;;;19.30;95.60;;;;;;4945103;28;20058;-89
2021/07/02 07:50:08;;;;;;;8.68;5.45;;;19.60;92.80;;;;;;4926182;29;20059;-89
2021/07/02 07:53:07;;;;;;;5.75;4.95;;;19.90;94.20;;;;;;4961657;28;20503;-88
2021/07/02 07:55:54;;;;;;;8.48;6.00;;;19.90;92.40;;;;;;4943097;28;20043;-91
2021/07/02 07:58:44;;;;;;;9.18;5.50;;;19.50;93.50;;;;;;4935170;29;20051;-89
2021/07/02 08:01:32;;;;;;;5.50;4.93;;;19.30;94.00;;;;;;4945361;28;20429;-88
2021/07/02 08:04:23;;;;;;;9.70;5.97;;;19.40;93.60;;;;;;4948724;28;20206;-89
2021/07/02 08:07:19;;;;;;;8.60;5.05;;;19.70;93.80;;;;;;4949027;28;20062;-90
2021/07/02 08:10:17;;;;;;;7.40;4.93;;;20.50;92.40;;;;;;4945177;28;20664;-88
2021/07/02 08:13:04;;;;;;;8.57;4.97;;;21.10;91.10;;;;;;4930462;29;20058;-88
2021/07/02 08:15:52;;;;;;;7.47;4.80;;;21.50;88.50;;;;;;4941815;28;20446;-87
2021/07/02 08:18:39;;;;;;;6.65;4.72;;;21.60;90.70;;;;;;4953064;28;20054;-90
2021/07/02 08:21:26;;;;;;;6.03;4.22;;;22.20;80.00;;;;;;4962639;28;20087;-91
2021/07/02 08:24:14;;;;;;;6.15;4.93;;;22.60;82.10;;;;;;4934363;29;20054;-90
2021/07/02 08:27:05;;;;;;;5.35;4.18;;;23.00;75.80;;;;;;4951569;28;20052;-89
2021/07/02 08:29:53;;;;;;;6.55;4.85;;;22.10;76.80;;;;;;4934672;29;20067;-89
2021/07/02 08:32:53;;;;;;;;;;;;;;;;;;;;;
2021/07/02 08:35:49;;;;;;;6.07;4.90;;;20.90;80.80;;;;;;4938363;29;20116;-90
2021/07/02 08:39:01;;;;;;;6.55;4.78;;;21.40;79.40;;;;;;4958985;28;20047;-92
2021/07/02 08:41:55;;;;;;;5.63;4.00;;;22.30;76.10;;;;;;4938681;29;20048;-90
2021/07/02 08:44:45;;;;;;;5.25;4.22;;;21.40;77.40;;;;;;4945015;28;20066;-92
2021/07/02 08:47:38;;;;;;;6.72;4.38;;;21.60;81.10;;;;;;4965533;28;20100;-92
2021/07/02 08:50:29;;;;;;;4.68;4.00;;;22.40;83.60;;;;;;4934366;29;20046;-94
2021/07/02 08:53:17;;;;;;;4.70;4.20;;;22.70;71.20;;;;;;4932557;29;20036;-88
2021/07/02 08:56:05;;;;;;;7.38;4.80;;;21.90;74.50;;;;;;4957572;28;20063;-91
2021/07/02 08:58:55;;;;;;;5.43;4.63;;;21.90;75.30;;;;;;4935728;28;20062;-93
2021/07/02 09:01:42;;;;;;;4.65;4.13;;;23.00;70.90;;;;;;4932233;29;20143;-94
2021/07/02 09:04:34;;;;;;;5.88;4.20;;;23.60;67.30;;;;;;4965875;28;20369;-89
2021/07/02 09:07:22;;;;;;;5.53;4.30;;;22.30;68.00;;;;;;4937185;29;20092;-91
2021/07/02 09:10:09;;;;;;;5.32;4.20;;;21.90;71.30;;;;;;4928020;29;20044;-92
2021/07/02 09:12:57;;;;;;;4.20;3.80;;;22.50;69.60;;;;;;4971919;28;20585;-89
2021/07/02 09:18:36;;;;;;;7.70;4.70;;;22.90;67.20;;;;;;5051327;23;20062;-90
2021/07/02 09:21:28;;;;;;;5.72;4.30;;;23.10;71.30;;;;;;5013356;28;20042;-92
2021/07/02 09:26:55;;;;;;;5.15;3.97;;;23.70;61.40;;;;;;4935476;29;20043;-92
2021/07/02 09:29:45;;;;;;;5.60;3.90;;;23.70;64.70;;;;;;4935579;29;20043;-93
2021/07/02 09:32:37;;;;;;;6.97;4.13;;;24.50;67.10;;;;;;4937185;29;20051;-93
2021/07/02 09:35:35;;;;;;;3.40;3.10;;;25.60;55.80;;;;;;4938403;29;20051;-91
2021/07/02 09:38:49;;;;;;;5.07;3.63;;;26.30;56.30;;;;;;4942340;28;20063;-93
2021/07/02 09:42:22;;;;;;;4.32;3.50;;;25.70;52.30;;;;;;4932361;29;20051;-94
2021/07/02 09:45:17;;;;;;;3.78;3.40;;;25.80;54.10;;;;;;4935974;29;20055;-94
2021/07/02 09:48:09;;;;;;;3.40;3.10;;;26.90;53.10;;;;;;4957261;28;20051;-92
2021/07/02 09:51:05;;;;;;;5.43;3.30;;;27.20;50.90;;;;;;4938467;29;20040;-90
2021/07/02 09:54:07;;;;;;;6.35;3.80;;;26.70;52.10;;;;;;4941755;29;20139;-91
2021/07/02 09:57:20;;;;;;;4.88;4.18;;;25.10;53.80;;;;;;4931150;29;20115;-92
2021/07/02 10:00:22;;;;;;;4.18;3.78;;;24.30;57.00;;;;;;4941747;28;20126;-92
2021/07/02 10:03:12;;;;;;;4.68;3.92;;;23.60;57.80;;;;;;4937772;29;20078;-92
2021/07/02 10:06:20;;;;;;;4.40;4.00;;;22.90;56.60;;;;;;4944862;29;20098;-93
2021/07/02 10:09:19;;;;;;;4.72;3.90;;;23.20;56.90;;;;;;4949485;29;20040;-90
2021/07/02 10:12:16;;;;;;;4.65;3.25;;;24.30;55.40;;;;;;4945511;29;20130;-94
2021/07/02 10:15:11;;;;;;;5.65;3.58;;;24.60;50.60;;;;;;4934587;29;20094;-92
2021/07/02 10:18:00;;;;;;;3.80;3.40;;;26.00;51.80;;;;;;4937514;28;20044;-93
2021/07/02 10:20:48;;;;;;;6.28;3.88;;;26.70;47.60;;;;;;4938841;29;20051;-92
2021/07/02 10:23:43;;;;;;;3.90;3.42;;;25.90;48.70;;;;;;4937391;29;20095;-93
2021/07/02 10:26:36;;;;;;;6.30;3.33;;;25.60;49.00;;;;;;4938985;29;20055;-93
2021/07/02 10:29:28;;;;;;;6.65;3.53;;;26.40;47.10;;;;;;4937867;28;20390;-92
2021/07/02 10:32:16;;;;;;;4.90;3.40;;;27.70;52.30;;;;;;4936004;28;20051;-91
2021/07/02 10:35:05;;;;;;;5.07;3.60;;;28.70;44.40;;;;;;4950163;28;20523;-94
2021/07/02 10:37:58;;;;;;;6.28;3.75;;;28.30;46.50;;;;;;4935337;29;20054;-89
2021/07/02 10:40:45;;;;;;;;;;;28.00;46.90;;;;;;4937753;29;20052;-93
2021/07/02 10:43:33;;;;;;;5.50;3.33;;;28.00;46.60;;;;;;4936434;29;19922;-90
2021/07/02 10:46:21;;;;;;;3.30;2.80;;;28.60;44.90;;;;;;4941672;29;20052;-91
2021/07/02 10:49:13;;;;;;;4.03;3.47;;;29.30;41.40;;;;;;4932315;29;20458;-91
2021/07/02 10:52:44;;;;;;;5.07;2.90;;;29.10;43.10;;;;;;4942381;29;20480;-92
2021/07/02 10:55:32;;;;;;;6.93;3.53;;;29.00;44.70;;;;;;4937200;28;20056;-91
2021/07/02 10:58:21;;;;;;;3.88;3.20;;;29.40;45.60;;;;;;4944598;29;20040;-90
2021/07/02 11:01:11;;;;;;;4.82;2.90;;;29.40;42.70;;;;;;4932828;29;20044;-91
2021/07/02 11:04:35;;;;;;;4.47;3.25;;;29.50;43.00;;;;;;4942098;28;20052;-91
2021/07/02 11:07:25;;;;;;;4.22;3.15;;;28.80;40.50;;;;;;4931217;28;20068;-92
2021/07/02 11:10:12;;;;;;;4.20;3.08;;;28.00;42.70;;;;;;4917893;29;20476;-90
2021/07/02 11:13:00;;;;;;;4.28;3.30;;;28.20;43.70;;;;;;4952188;28;20103;-92
2021/07/02 11:16:10;;;;;;;3.40;3.10;;;28.80;45.40;;;;;;4945216;28;20040;-92
2021/07/02 11:19:31;;;;;;;5.55;3.20;;;29.20;39.80;;;;;;4938197;29;20067;-91
2021/07/02 11:22:37;;;;;;;7.03;3.40;;;29.50;43.40;;;;;;4938000;28;20047;-92
2021/07/02 11:25:51;;;;;;;5.03;2.92;;;30.60;38.10;;;;;;4928723;28;20296;-92
2021/07/02 11:28:54;;;;;;;7.60;3.10;;;30.10;37.60;;;;;;4939310;28;20063;-92
2021/07/02 11:31:44;;;;;;;4.50;3.58;;;30.60;38.90;;;;;;4935276;28;20071;-92
2021/07/02 11:34:32;;;;;;;5.47;3.20;;;30.70;40.80;;;;;;4927960;28;20377;-93
2021/07/02 11:37:19;;;;;;;3.83;3.50;;;31.30;39.00;;;;;;4925623;29;20130;-92
2021/07/02 11:40:07;;;;;;;5.88;3.60;;;31.50;41.90;;;;;;4934888;29;20079;-91
2021/07/02 11:43:05;;;;;;;3.38;3.05;;;32.30;36.80;;;;;;4934806;29;20060;-94
2021/07/02 11:45:55;;;;;;;3.88;3.28;;;32.60;35.20;;;;;;4942665;28;20047;-90
2021/07/02 11:48:58;;;;;;;6.63;3.60;;;32.40;35.70;;;;;;4930008;28;20048;-93
2021/07/02 11:51:47;;;;;;;5.47;3.28;;;33.10;35.30;;;;;;4918913;29;20044;-89
2021/07/02 11:54:34;;;;;;;4.05;3.17;;;32.40;38.60;;;;;;4933930;29;20071;-92
2021/07/02 11:57:24;;;;;;;4.93;3.47;;;32.30;35.00;;;;;;4937181;29;20051;-91
2021/07/02 12:00:36;;;;;;;7.30;3.33;;;32.40;40.30;;;;;;4930090;29;20044;-91
2021/07/02 12:03:26;;;;;;;3.60;3.10;;;31.40;36.40;;;;;;4919395;28;20048;-90
2021/07/02 12:06:25;;;;;;;3.80;3.40;;;31.60;37.90;;;;;;4941139;28;20056;-90
2021/07/02 12:09:30;;;;;;;3.67;3.38;;;31.80;35.30;;;;;;4937109;28;20075;-90
2021/07/02 12:12:21;;;;;;;3.63;3.33;;;32.30;34.40;;;;;;4927948;28;20048;-90
2021/07/02 12:15:42;;;;;;;3.83;3.10;;;33.00;34.60;;;;;;4947723;28;20062;-92
2021/07/02 12:18:30;;;;;;;10.57;3.80;;;32.50;34.90;;;;;;4936748;28;20051;-90
2021/07/02 12:21:39;;;;;;;3.90;3.20;;;32.70;36.00;;;;;;4943270;29;20051;-91
2021/07/02 12:24:29;;;;;;;4.90;3.40;;;33.10;35.40;;;;;;4935607;28;20048;-93
2021/07/02 12:27:28;;;;;;;5.85;3.53;;;32.70;34.50;;;;;;4933687;29;20048;-92
2021/07/02 12:30:17;;;;;;;4.18;3.42;;;32.20;36.40;;;;;;4934058;29;20055;-89
2021/07/02 12:33:05;;;;;;;6.68;4.53;;;32.90;37.50;;;;;;4937323;29;20043;-88
2021/07/02 12:35:52;;;;;;;4.45;3.75;;;32.30;38.60;;;;;;4946061;29;20103;-89
2021/07/02 12:38:58;;;;;;;3.83;3.53;;;31.90;40.30;;;;;;4934020;28;20144;-90
2021/07/02 12:41:48;;;;;;;4.47;4.05;;;30.90;41.00;;;;;;4943967;28;20452;-91
2021/07/02 12:44:37;;;;;;;5.50;3.85;;;30.70;40.70;;;;;;4921255;29;20075;-88
2021/07/02 12:47:30;;;;;;;3.90;3.50;;;31.00;41.90;;;;;;4936116;28;20043;-91
2021/07/02 12:50:20;;;;;;;7.15;3.63;;;31.70;40.20;;;;;;4934566;28;20135;-89
2021/07/02 12:56:21;;;;;;;4.30;3.90;;;30.60;41.10;;;;;;4937071;29;20036;-91
2021/07/02 12:59:15;;;;;;;4.22;3.83;;;29.30;41.40;;;;;;4950757;28;20110;-90
2021/07/02 13:02:02;;;;;;;4.68;4.13;;;28.20;46.00;;;;;;4933270;29;20182;-91
2021/07/02 13:04:53;;;;;;;6.18;4.45;;;27.00;47.50;;;;;;4941622;29;20043;-89
2021/07/02 13:08:11;;;;;;;5.35;4.35;;;26.30;50.80;;;;;;4938219;29;20139;-91
2021/07/02 13:11:24;;;;;;;6.18;3.85;;;26.40;50.40;;;;;;4933437;29;20195;-90
2021/07/02 13:14:28;;;;;;;6.28;3.97;;;28.20;46.00;;;;;;4937833;29;20403;-92
2021/07/02 13:17:16;;;;;;;5.47;4.22;;;30.00;44.30;;;;;;4938314;29;20067;-91
2021/07/02 13:20:08;;;;;;;4.53;3.60;;;31.80;39.40;;;;;;4938025;29;20039;-91
2021/07/02 13:23:03;;;;;;;3.72;3.35;;;32.80;40.00;;;;;;4937267;29;20191;-91
2021/07/02 13:26:19;;;;;;;5.65;3.75;;;33.40;40.40;;;;;;4941018;29;20054;-90
2021/07/02 13:29:09;;;;;;;5.30;3.45;;;33.30;35.60;;;;;;4928062;29;20064;-90
2021/07/02 13:32:00;;;;;;;3.80;3.50;;;33.00;37.60;;;;;;4939848;28;20043;-90
2021/07/02 13:34:47;;;;;;;4.72;3.38;;;33.30;36.80;;;;;;4925563;29;20104;-91
2021/07/02 13:37:35;;;;;;;4.38;3.30;;;33.80;36.70;;;;;;4941263;29;20155;-90
2021/07/02 13:40:39;;;;;;;4.13;3.47;;;34.00;37.00;;;;;;4935021;29;20122;-90
2021/07/02 13:43:29;;;;;;;4.93;3.28;;;34.50;34.00;;;;;;4945955;29;20150;-91
2021/07/02 13:46:27;;;;;;;3.80;3.28;;;34.20;34.50;;;;;;4943051;28;20197;-92
2021/07/02 13:49:16;;;;;;;3.55;3.25;;;34.50;34.10;;;;;;4938095;28;20107;-90
2021/07/02 13:52:08;;;;;;;3.63;3.30;;;34.60;31.10;;;;;;4939519;29;20194;-91
2021/07/02 13:54:56;;;;;;;4.82;3.78;;;33.90;32.80;;;;;;4935354;29;20111;-92
2021/07/02 13:57:44;;;;;;;4.82;3.65;;;33.50;36.30;;;;;;4934649;29;20103;-91
2021/07/02 14:00:33;;;;;;;5.03;3.72;;;33.80;38.30;;;;;;4929326;29;20187;-90
2021/07/02 14:03:23;;;;;;;3.97;3.53;;;34.40;38.40;;;;;;4924411;29;20055;-90
2021/07/02 14:06:13;;;;;;;4.57;3.75;;;34.80;34.80;;;;;;4937369;28;20399;-89
2021/07/02 14:09:01;;;;;;;3.50;3.20;;;34.20;35.20;;;;;;4934928;29;20056;-90
2021/07/02 14:11:48;;;;;;;4.13;3.25;;;34.30;34.40;;;;;;4923520;28;20201;-90
2021/07/02 14:14:36;;;;;;;4.18;3.20;;;34.40;36.40;;;;;;4935149;29;20035;-90
2021/07/02 14:17:23;;;;;;;4.40;3.83;;;33.50;36.40;;;;;;4938385;29;20047;-90
2021/07/02 14:20:11;;;;;;;3.83;3.42;;;32.90;38.80;;;;;;4915279;29;20127;-90
2021/07/02 14:22:58;;;;;;;4.90;3.47;;;32.80;36.70;;;;;;4928581;29;20187;-90
2021/07/02 14:25:46;;;;;;;4.35;3.95;;;32.00;37.40;;;;;;4936556;29;20070;-90
2021/07/02 14:28:33;;;;;;;4.20;3.80;;;30.70;41.70;;;;;;4933489;29;20586;-91
2021/07/02 14:31:23;;;;;;;5.80;4.32;;;29.90;42.10;;;;;;4926288;29;20422;-91
2021/07/02 14:34:11;;;;;;;5.13;4.32;;;28.80;44.80;;;;;;4944255;29;20163;-91
2021/07/02 14:37:01;;;;;;;6.85;4.47;;;28.40;45.80;;;;;;4937665;29;20107;-91
2021/07/02 14:39:48;;;;;;;4.63;3.70;;;29.20;44.50;;;;;;4935281;29;20048;-90
2021/07/02 14:42:41;;;;;;;4.78;3.92;;;28.90;43.70;;;;;;4926558;29;20057;-92
2021/07/02 14:45:29;;;;;;;6.43;4.20;;;28.70;43.70;;;;;;4942991;28;20146;-93
2021/07/02 14:48:24;;;;;;;5.03;4.45;;;28.80;43.40;;;;;;4936652;29;20044;-91
2021/07/02 14:51:14;;;;;;;5.38;4.60;;;28.40;44.40;;;;;;4937177;29;20103;-91
2021/07/02 14:54:01;;;;;;;7.97;4.40;;;27.40;46.70;;;;;;4928776;29;20059;-90
2021/07/02 14:56:53;;;;;;;5.03;4.40;;;26.80;48.20;;;;;;4933697;29;20127;-90
2021/07/02 14:59:58;;;;;;;5.03;4.07;;;27.10;48.80;;;;;;4943585;29;20062;-90
2021/07/02 15:06:13;;;;;;;4.05;3.55;;;29.40;42.90;;;;;;4946113;28;20110;-90
2021/07/02 15:09:03;;;;;;;4.57;4.07;;;30.40;43.50;;;;;;4939058;29;20044;-88